Terminal Aerodrome Forecast
Issued by NWS

Home | Current Version | Previous Version | Text Only | Print | Product List | Glossary Off
Versions: 1 2 3 4 5 6 7 8 9 10 11 12 13 14 15 16 17 18 19

085
FTUS43 KGRB 221738
TAFMTW
TAF
KMTW 221738Z 2218/2318 03014G20KT 3SM RA OVC004
     FM230500 01020G28KT 3SM -RASN OVC004
     FM230800 36019G28KT 3SM -FZDZ OVC009
     FM231200 36016G30KT 3SM -SN OVC012
     FM231700 35016G29KT 5SM BR OVC016=

USA.gov is the U.S. government's official web portal to all federal, state and local government web resources and services.